Time;durP1;ratioP1;P1;durP2;ratioP2;P2;SDS_P1;SDS_P2;PMS_P1;PMS_P2;Temp;Humidity;BMP_temperature;BMP_pressure;BME280_temperature;BME280_humidity;BME280_pressure;Samples;Min_cycle;Max_cycle;Signal;HPM_P1;HPM_P2
2021/03/11 00:00:37;;;;;;;10.20;6.80;;;3.40;99.90;;;;;;5074979;28;20200;-71
2021/03/11 00:03:15;;;;;;;15.93;9.32;;;3.50;99.90;;;;;;5073909;28;20172;-70
2021/03/11 00:05:43;;;;;;;22.75;13.30;;;3.50;99.90;;;;;;5072447;28;20207;-71
2021/03/11 00:08:10;;;;;;;14.85;8.95;;;3.50;99.90;;;;;;5071235;28;20200;-69
2021/03/11 00:10:39;;;;;;;13.55;10.32;;;3.50;99.90;;;;;;5070478;28;20176;-69
2021/03/11 00:13:07;;;;;;;14.57;9.77;;;3.40;99.90;;;;;;5072850;28;20196;-70
2021/03/11 00:15:37;;;;;;;15.07;10.75;;;3.40;99.90;;;;;;5072022;28;20169;-70
2021/03/11 00:18:05;;;;;;;17.33;12.45;;;3.40;99.90;;;;;;5072932;28;20196;-69
2021/03/11 00:20:33;;;;;;;19.65;11.88;;;3.40;99.90;;;;;;5076020;28;20188;-69
2021/03/11 00:23:01;;;;;;;17.80;8.85;;;3.30;99.90;;;;;;5076750;28;20655;-70
2021/03/11 00:25:31;;;;;;;18.35;11.30;;;3.30;99.90;;;;;;5076427;28;20287;-70
2021/03/11 00:27:58;;;;;;;14.38;8.40;;;3.40;99.90;;;;;;5057676;28;20199;-69
2021/03/11 00:30:26;;;;;;;13.90;10.15;;;3.40;99.90;;;;;;5058938;28;20199;-71
2021/03/11 00:32:54;;;;;;;20.08;11.57;;;3.40;99.90;;;;;;5076946;28;20180;-71
2021/03/11 00:35:21;;;;;;;20.25;11.90;;;3.40;99.90;;;;;;5058868;28;20191;-70
2021/03/11 00:37:49;;;;;;;17.23;9.82;;;3.40;99.90;;;;;;5077156;28;20223;-70
2021/03/11 00:40:19;;;;;;;18.95;10.48;;;3.40;99.90;;;;;;5068295;28;20530;-71
2021/03/11 00:42:46;;;;;;;18.33;10.90;;;3.40;99.90;;;;;;5058178;28;20195;-70
2021/03/11 00:45:14;;;;;;;18.67;12.77;;;3.40;99.90;;;;;;5076183;28;20547;-69
2021/03/11 00:47:41;;;;;;;16.65;11.35;;;3.40;99.90;;;;;;5057910;28;20223;-69
2021/03/11 00:50:12;;;;;;;16.85;10.90;;;3.40;99.90;;;;;;5057811;28;20661;-69
2021/03/11 00:52:39;;;;;;;23.23;11.32;;;3.40;99.90;;;;;;5057990;28;20253;-69
2021/03/11 00:55:08;;;;;;;21.60;12.05;;;3.30;99.90;;;;;;5058056;28;20211;-70
2021/03/11 00:57:37;;;;;;;23.88;14.40;;;3.30;99.90;;;;;;5057519;28;20219;-70
2021/03/11 01:00:06;;;;;;;20.63;13.40;;;3.40;99.90;;;;;;5058618;28;20203;-69
2021/03/11 01:02:48;;;;;;;20.50;13.27;;;3.30;99.90;;;;;;5077685;28;20188;-69
2021/03/11 01:05:19;;;;;;;22.52;11.77;;;3.30;99.90;;;;;;5057793;28;20190;-69
2021/03/11 01:07:47;;;;;;;20.45;12.07;;;3.30;99.90;;;;;;5058026;28;20333;-70
2021/03/11 01:10:14;;;;;;;26.17;13.02;;;3.30;99.90;;;;;;5077192;28;20176;-70
2021/03/11 01:12:42;;;;;;;18.05;12.55;;;3.20;99.90;;;;;;5077150;28;20560;-69
2021/03/11 01:15:10;;;;;;;19.50;12.15;;;3.20;99.90;;;;;;5075236;28;20229;-69
2021/03/11 01:17:38;;;;;;;22.20;14.07;;;3.20;99.90;;;;;;5075368;28;20752;-70
2021/03/11 01:20:09;;;;;;;23.63;13.27;;;3.20;99.90;;;;;;5074978;28;20199;-69
2021/03/11 01:22:36;;;;;;;21.63;12.60;;;3.30;99.90;;;;;;5075903;28;20195;-70
2021/03/11 01:25:05;;;;;;;21.85;10.70;;;3.20;99.90;;;;;;5075265;28;20180;-70
2021/03/11 01:27:32;;;;;;;26.42;11.60;;;3.30;99.90;;;;;;5075628;28;20216;-69
2021/03/11 01:30:00;;;;;;;25.65;13.98;;;3.30;99.90;;;;;;5074425;28;20172;-70
2021/03/11 01:32:27;;;;;;;20.45;12.73;;;3.30;99.90;;;;;;5075892;28;20676;-70
2021/03/11 01:34:55;;;;;;;16.70;12.93;;;3.30;99.90;;;;;;5075021;28;20251;-69
2021/03/11 01:37:22;;;;;;;21.80;14.93;;;3.40;99.90;;;;;;5076642;28;20216;-69
2021/03/11 01:39:49;;;;;;;18.48;13.27;;;3.40;99.90;;;;;;5074663;28;20196;-71
2021/03/11 01:42:17;;;;;;;28.73;13.82;;;3.40;99.90;;;;;;5074664;28;20188;-70
2021/03/11 01:44:44;;;;;;;25.55;14.45;;;3.40;99.90;;;;;;5056833;28;20194;-70
2021/03/11 01:47:12;;;;;;;22.83;13.98;;;3.50;99.90;;;;;;5075849;28;20208;-69
2021/03/11 01:49:40;;;;;;;22.88;12.05;;;3.40;99.90;;;;;;5075335;28;20177;-70
2021/03/11 01:52:07;;;;;;;29.25;13.52;;;3.40;99.90;;;;;;5126970;22;20183;-77
2021/03/11 01:54:39;;;;;;;28.50;15.50;;;3.50;99.90;;;;;;5129758;28;20170;-79
2021/03/11 01:57:07;;;;;;;26.10;13.45;;;3.50;99.90;;;;;;5127534;28;20186;-79
2021/03/11 01:59:34;;;;;;;21.05;13.85;;;3.50;99.90;;;;;;5131804;28;20259;-78
2021/03/11 02:02:01;;;;;;;19.85;11.88;;;3.50;99.90;;;;;;5132230;28;20175;-79
2021/03/11 02:04:30;;;;;;;26.48;15.10;;;3.50;99.90;;;;;;5126726;28;20657;-80
2021/03/11 02:06:57;;;;;;;23.13;14.45;;;3.50;99.90;;;;;;5126543;28;20234;-79
2021/03/11 02:09:24;;;;;;;22.95;14.82;;;3.50;99.90;;;;;;5126068;28;20822;-80
2021/03/11 02:11:58;;;;;;;23.27;11.88;;;3.60;99.90;;;;;;5125841;28;20208;-79
2021/03/11 02:14:34;;;;;;;28.30;15.25;;;3.60;99.90;;;;;;5125689;28;20198;-80
2021/03/11 02:17:05;;;;;;;16.50;9.77;;;3.60;99.90;;;;;;5132857;28;20197;-79
2021/03/11 02:19:57;;;;;;;39.10;18.73;;;3.60;99.90;;;;;;5132178;28;20187;-79
2021/03/11 02:22:35;;;;;;;20.55;13.75;;;3.60;99.90;;;;;;5133898;28;20211;-78
2021/03/11 02:25:06;;;;;;;27.85;15.48;;;3.60;99.90;;;;;;5136352;28;20162;-79
2021/03/11 02:27:57;;;;;;;23.55;13.85;;;3.60;99.90;;;;;;5112015;28;20218;-79
2021/03/11 02:30:26;;;;;;;26.08;15.95;;;3.60;99.90;;;;;;5127106;28;20214;-80
2021/03/11 02:32:55;;;;;;;28.38;15.05;;;3.60;99.90;;;;;;5129818;28;20206;-79
2021/03/11 02:35:23;;;;;;;20.38;12.55;;;3.70;99.90;;;;;;5129771;28;20175;-79
2021/03/11 02:37:52;;;;;;;34.45;17.10;;;3.70;99.90;;;;;;5129420;28;20186;-79
2021/03/11 02:40:24;;;;;;;29.70;14.75;;;3.60;99.90;;;;;;5110186;28;20266;-79
2021/03/11 02:42:53;;;;;;;27.65;15.95;;;3.60;99.90;;;;;;5127140;28;20207;-80
2021/03/11 02:45:22;;;;;;;21.27;13.07;;;3.60;99.90;;;;;;5130195;28;20175;-79
2021/03/11 02:47:52;;;;;;;23.10;16.73;;;3.60;99.90;;;;;;5118494;28;20185;-79
2021/03/11 02:50:20;;;;;;;27.05;13.18;;;3.70;99.90;;;;;;5137997;28;20179;-79
2021/03/11 02:52:49;;;;;;;22.25;15.43;;;3.70;99.90;;;;;;5126432;28;20512;-79
2021/03/11 02:55:22;;;;;;;26.02;13.57;;;3.70;99.90;;;;;;5113859;28;20660;-78
2021/03/11 02:57:51;;;;;;;23.77;15.50;;;3.80;99.90;;;;;;5105112;28;20194;-79
2021/03/11 03:00:21;;;;;;;23.67;14.23;;;3.80;99.90;;;;;;5105240;28;20191;-79
2021/03/11 03:02:52;;;;;;;32.03;16.10;;;3.80;99.90;;;;;;5087395;28;20250;-79
2021/03/11 03:05:21;;;;;;;26.95;14.93;;;3.80;99.90;;;;;;5104555;28;20222;-78
2021/03/11 03:07:50;;;;;;;27.88;16.08;;;3.80;99.90;;;;;;5103512;28;20191;-78
2021/03/11 03:10:19;;;;;;;25.73;14.30;;;3.80;99.90;;;;;;5103370;28;20168;-80
2021/03/11 03:12:49;;;;;;;30.80;17.77;;;3.80;99.90;;;;;;5104137;28;20263;-80
2021/03/11 03:15:20;;;;;;;33.03;14.82;;;3.80;99.90;;;;;;5103692;28;20191;-80
2021/03/11 03:17:49;;;;;;;21.35;13.48;;;3.90;99.90;;;;;;5103311;28;20266;-78
2021/03/11 03:20:18;;;;;;;29.05;15.32;;;3.80;99.90;;;;;;5102783;28;20251;-79
2021/03/11 03:22:46;;;;;;;24.63;15.35;;;3.80;99.90;;;;;;5101840;28;20207;-78
2021/03/11 03:25:14;;;;;;;26.77;15.55;;;3.90;99.90;;;;;;5085689;28;20203;-79
2021/03/11 03:27:42;;;;;;;28.40;14.23;;;3.80;99.90;;;;;;5103006;28;20198;-79
2021/03/11 03:30:12;;;;;;;26.13;17.88;;;3.90;99.90;;;;;;5086884;28;20187;-79
2021/03/11 03:32:39;;;;;;;22.30;12.98;;;3.80;99.90;;;;;;5103481;28;20213;-79
2021/03/11 03:35:10;;;;;;;28.48;16.23;;;3.90;99.90;;;;;;5104416;28;20187;-79
2021/03/11 03:37:38;;;;;;;18.50;12.70;;;3.80;99.90;;;;;;5104037;28;20168;-80
2021/03/11 03:40:08;;;;;;;22.83;12.65;;;3.80;99.90;;;;;;5103078;28;20195;-79
2021/03/11 03:42:40;;;;;;;28.23;15.23;;;3.80;99.90;;;;;;5104844;28;20203;-79
2021/03/11 03:45:12;;;;;;;27.60;14.80;;;3.80;99.90;;;;;;5106355;28;20179;-80
2021/03/11 03:47:42;;;;;;;25.40;13.82;;;3.80;99.90;;;;;;5105512;28;20187;-79
2021/03/11 03:50:10;;;;;;;31.88;18.35;;;3.80;99.90;;;;;;5108342;28;20247;-79
2021/03/11 03:52:40;;;;;;;28.17;14.50;;;3.80;99.90;;;;;;5113420;28;20218;-79
2021/03/11 03:55:10;;;;;;;32.97;15.38;;;3.80;99.90;;;;;;5117810;28;20191;-79
2021/03/11 03:57:40;;;;;;;22.00;14.57;;;3.90;99.90;;;;;;5114831;28;20190;-79
2021/03/11 04:00:10;;;;;;;28.52;15.70;;;3.90;99.90;;;;;;5092356;28;20207;-79
2021/03/11 04:02:37;;;;;;;34.45;15.70;;;3.80;99.90;;;;;;5108931;28;20213;-79
2021/03/11 04:05:06;;;;;;;23.50;14.38;;;3.70;99.90;;;;;;5090359;28;20293;-79
2021/03/11 04:07:34;;;;;;;30.52;18.35;;;3.70;99.90;;;;;;5108713;28;20180;-79
2021/03/11 04:10:07;;;;;;;28.08;12.93;;;3.70;99.90;;;;;;5108631;28;20171;-79
2021/03/11 04:12:35;;;;;;;24.00;13.05;;;3.70;99.90;;;;;;5106829;28;20257;-80
2021/03/11 04:15:05;;;;;;;29.67;15.05;;;3.60;99.90;;;;;;5109979;28;20174;-78
2021/03/11 04:17:33;;;;;;;26.77;15.88;;;3.60;99.90;;;;;;5106799;28;20215;-78
2021/03/11 04:20:03;;;;;;;35.55;17.52;;;3.60;99.90;;;;;;5109661;28;20195;-79
2021/03/11 04:22:31;;;;;;;29.58;14.80;;;3.70;99.90;;;;;;5108937;28;20206;-79
2021/03/11 04:24:59;;;;;;;28.17;13.80;;;3.70;99.90;;;;;;5094440;28;20188;-79
2021/03/11 04:27:28;;;;;;;29.35;16.33;;;3.70;99.90;;;;;;5108713;28;20243;-79
2021/03/11 04:29:56;;;;;;;25.58;12.30;;;3.60;99.90;;;;;;5109197;28;20172;-79
2021/03/11 04:32:23;;;;;;;32.88;15.75;;;3.70;99.90;;;;;;5106661;28;20235;-79
2021/03/11 04:34:51;;;;;;;23.15;13.88;;;3.60;99.90;;;;;;5089381;28;20198;-80
2021/03/11 04:37:19;;;;;;;20.23;13.90;;;3.70;99.90;;;;;;5106943;28;20243;-79
2021/03/11 04:39:47;;;;;;;28.45;15.00;;;3.70;99.90;;;;;;5105457;28;20176;-80
2021/03/11 04:42:15;;;;;;;31.02;18.63;;;3.60;99.90;;;;;;5109611;28;20206;-79
2021/03/11 04:44:44;;;;;;;26.88;15.13;;;3.60;99.90;;;;;;5093382;28;20202;-79
2021/03/11 04:47:12;;;;;;;28.33;15.48;;;3.60;99.90;;;;;;5109922;28;20270;-78
2021/03/11 04:49:40;;;;;;;27.50;16.05;;;3.70;99.90;;;;;;5109362;28;20275;-77
2021/03/11 04:52:09;;;;;;;28.48;16.77;;;3.70;99.90;;;;;;5090290;28;20214;-78
2021/03/11 04:54:36;;;;;;;23.55;13.15;;;3.60;99.90;;;;;;5108871;28;20175;-79
2021/03/11 04:57:05;;;;;;;21.27;14.45;;;3.60;99.90;;;;;;5107694;28;20201;-79
2021/03/11 04:59:32;;;;;;;24.25;13.80;;;3.70;99.90;;;;;;5103344;28;20198;-79
2021/03/11 05:02:05;;;;;;;26.33;15.32;;;3.70;99.90;;;;;;5104206;28;20195;-78
2021/03/11 05:04:34;;;;;;;22.55;13.18;;;3.70;99.90;;;;;;5110165;28;20507;-77
2021/03/11 05:07:02;;;;;;;17.73;12.63;;;3.80;99.90;;;;;;5112053;28;20237;-80
2021/03/11 05:09:29;;;;;;;31.48;15.07;;;3.80;99.90;;;;;;5114377;28;20247;-79
2021/03/11 05:11:56;;;;;;;39.25;13.40;;;3.80;99.90;;;;;;5117722;28;20214;-78
2021/03/11 05:14:23;;;;;;;28.23;12.77;;;3.80;99.90;;;;;;5115275;28;20172;-78
2021/03/11 05:16:50;;;;;;;32.38;17.30;;;3.90;99.90;;;;;;5114354;28;20195;-78
2021/03/11 05:19:19;;;;;;;24.90;12.93;;;3.80;99.90;;;;;;5107901;28;20179;-78
2021/03/11 05:21:46;;;;;;;24.55;13.70;;;3.90;99.90;;;;;;5113924;28;20264;-80
2021/03/11 05:24:14;;;;;;;25.98;14.32;;;3.90;99.90;;;;;;5117487;28;20199;-79
2021/03/11 05:26:41;;;;;;;22.58;16.17;;;3.90;99.90;;;;;;5092859;28;20286;-80
2021/03/11 05:29:12;;;;;;;29.55;14.77;;;4.00;99.90;;;;;;5087327;28;20194;-77
2021/03/11 05:31:39;;;;;;;24.02;14.60;;;4.00;99.90;;;;;;5085443;28;20195;-79
2021/03/11 05:34:07;;;;;;;28.75;14.98;;;3.90;99.90;;;;;;5106824;28;20227;-79
2021/03/11 05:36:35;;;;;;;26.50;17.45;;;3.90;99.90;;;;;;5087294;28;20230;-79
2021/03/11 05:39:04;;;;;;;23.70;13.88;;;3.90;99.90;;;;;;5086211;28;20180;-79
2021/03/11 05:41:36;;;;;;;22.77;13.63;;;3.90;99.90;;;;;;5103445;28;20187;-77
2021/03/11 05:44:06;;;;;;;27.45;13.82;;;3.90;99.90;;;;;;5085896;28;20219;-78
2021/03/11 05:46:38;;;;;;;31.15;17.33;;;4.00;99.90;;;;;;5103684;28;20175;-78
2021/03/11 05:49:09;;;;;;;29.60;16.27;;;3.90;99.90;;;;;;5105933;28;20182;-78
2021/03/11 05:51:37;;;;;;;18.63;13.75;;;4.00;99.90;;;;;;5086431;28;20211;-78
2021/03/11 05:54:06;;;;;;;20.75;14.07;;;3.90;99.90;;;;;;5089234;28;20728;-78
2021/03/11 05:56:33;;;;;;;29.05;14.40;;;3.90;99.90;;;;;;5106999;28;20178;-78
2021/03/11 05:59:01;;;;;;;17.98;10.30;;;3.90;99.90;;;;;;5114712;28;20187;-78
2021/03/11 06:01:31;;;;;;;29.63;13.32;;;3.90;99.90;;;;;;5113116;28;20203;-78
2021/03/11 06:04:01;;;;;;;31.70;16.90;;;4.00;99.90;;;;;;5109005;28;20224;-78
2021/03/11 06:06:31;;;;;;;30.10;15.25;;;4.00;99.90;;;;;;5101938;28;20219;-79
2021/03/11 06:09:00;;;;;;;28.92;16.27;;;4.00;99.90;;;;;;5095448;28;20183;-79
2021/03/11 06:11:28;;;;;;;20.83;11.30;;;4.10;99.90;;;;;;5084562;28;20176;-80
2021/03/11 06:13:56;;;;;;;29.30;15.25;;;4.00;99.90;;;;;;5102507;28;20218;-79
2021/03/11 06:16:26;;;;;;;26.52;13.60;;;4.00;99.90;;;;;;5103453;28;20229;-78
2021/03/11 06:18:54;;;;;;;22.55;13.90;;;4.00;99.90;;;;;;5101223;28;20229;-79
2021/03/11 06:21:21;;;;;;;28.67;15.70;;;4.10;99.90;;;;;;5084911;28;20211;-79
2021/03/11 06:23:49;;;;;;;30.23;17.27;;;4.10;99.90;;;;;;5102176;28;20266;-79
2021/03/11 06:26:17;;;;;;;19.27;12.23;;;4.10;99.90;;;;;;5084904;28;20188;-79
2021/03/11 06:28:53;;;;;;;20.65;13.10;;;4.10;99.90;;;;;;5085114;28;20282;-79
2021/03/11 06:31:21;;;;;;;28.48;14.60;;;4.10;99.90;;;;;;5103281;28;20171;-79
2021/03/11 06:33:49;;;;;;;24.60;14.85;;;4.10;99.90;;;;;;5102894;28;20257;-78
2021/03/11 06:36:18;;;;;;;28.55;17.13;;;4.10;99.90;;;;;;5086008;28;20599;-80
2021/03/11 06:38:45;;;;;;;26.00;15.23;;;4.10;99.90;;;;;;5104374;28;20198;-77
2021/03/11 06:41:12;;;;;;;25.40;13.38;;;4.10;99.90;;;;;;5115041;28;20194;-80
2021/03/11 06:43:56;;;;;;;25.52;13.70;;;4.20;99.90;;;;;;5104994;28;20681;-80
2021/03/11 06:46:25;;;;;;;26.73;15.48;;;4.20;99.90;;;;;;5083826;28;20195;-79
2021/03/11 06:49:06;;;;;;;25.38;15.23;;;4.30;99.90;;;;;;5086289;28;20700;-81
2021/03/11 06:51:33;;;;;;;23.08;14.88;;;4.30;99.90;;;;;;5104140;28;20171;-80
2021/03/11 06:54:01;;;;;;;28.00;14.90;;;4.30;99.90;;;;;;5097735;28;20246;-80
2021/03/11 06:56:29;;;;;;;16.85;12.00;;;4.30;99.90;;;;;;5100561;28;20183;-78
2021/03/11 06:58:59;;;;;;;24.58;14.95;;;4.30;99.90;;;;;;5099195;28;20181;-78
2021/03/11 07:01:28;;;;;;;26.80;13.90;;;4.30;99.90;;;;;;5079859;28;20703;-78
2021/03/11 07:04:01;;;;;;;27.15;14.07;;;4.30;99.90;;;;;;5099958;28;20624;-81
2021/03/11 07:06:31;;;;;;;22.52;15.52;;;4.30;99.90;;;;;;5102075;28;20604;-80
2021/03/11 07:08:59;;;;;;;23.73;12.23;;;4.30;99.90;;;;;;5107726;28;20522;-78
2021/03/11 07:11:27;;;;;;;30.10;14.65;;;4.30;99.90;;;;;;5110668;28;20167;-79
2021/03/11 07:13:55;;;;;;;24.67;15.98;;;4.30;99.90;;;;;;5107475;28;20204;-77
2021/03/11 07:16:26;;;;;;;32.00;16.20;;;4.30;99.90;;;;;;5101489;28;20218;-78
2021/03/11 07:19:12;;;;;;;25.92;15.98;;;4.30;99.90;;;;;;5119397;28;20609;-77
2021/03/11 07:21:42;;;;;;;23.08;11.05;;;4.30;99.90;;;;;;5069092;28;20326;-80
2021/03/11 07:24:11;;;;;;;22.77;13.98;;;4.30;99.90;;;;;;5087925;28;20724;-79
2021/03/11 07:26:39;;;;;;;25.15;13.82;;;4.30;99.90;;;;;;5105627;28;20172;-78
2021/03/11 07:29:19;;;;;;;22.05;13.23;;;4.40;99.90;;;;;;5099791;28;20187;-77
2021/03/11 07:31:55;;;;;;;25.55;11.75;;;4.30;99.90;;;;;;5103849;28;20172;-80
2021/03/11 07:34:28;;;;;;;22.55;13.23;;;4.30;99.90;;;;;;5104365;28;20183;-78
2021/03/11 07:36:58;;;;;;;22.90;14.95;;;4.40;99.90;;;;;;5100015;28;20520;-79
2021/03/11 07:39:38;;;;;;;21.48;12.10;;;4.40;99.90;;;;;;5097522;28;20167;-81
2021/03/11 07:42:09;;;;;;;24.77;16.08;;;4.50;99.90;;;;;;5092447;28;20290;-79
2021/03/11 07:44:38;;;;;;;30.20;12.43;;;4.50;99.90;;;;;;5077477;28;20519;-80
2021/03/11 07:47:10;;;;;;;18.67;13.10;;;4.60;99.90;;;;;;5077348;28;20191;-79
2021/03/11 07:49:38;;;;;;;21.13;13.48;;;4.60;99.90;;;;;;5077672;28;20184;-79
2021/03/11 07:52:07;;;;;;;19.83;12.80;;;4.60;99.90;;;;;;5065586;28;20184;-78
2021/03/11 07:54:35;;;;;;;21.08;12.95;;;4.60;99.90;;;;;;5114585;22;20243;-74
2021/03/11 07:57:04;;;;;;;23.58;15.25;;;4.60;99.90;;;;;;5080969;28;20211;-75
2021/03/11 07:59:34;;;;;;;27.90;14.80;;;4.60;99.90;;;;;;5074463;28;20168;-77
2021/03/11 08:02:08;;;;;;;26.42;15.23;;;4.70;99.90;;;;;;5073233;28;20196;-72
2021/03/11 08:04:42;;;;;;;23.40;14.73;;;4.80;99.90;;;;;;5071334;28;20172;-71
2021/03/11 08:07:21;;;;;;;32.72;14.43;;;4.80;99.90;;;;;;5073502;28;20242;-72
2021/03/11 08:09:50;;;;;;;24.33;12.15;;;4.80;99.90;;;;;;5071177;28;20303;-73
2021/03/11 08:12:37;;;;;;;26.40;15.23;;;4.90;99.90;;;;;;5071855;28;20238;-71
2021/03/11 08:15:07;;;;;;;23.67;13.27;;;4.80;99.90;;;;;;5085750;28;20164;-71
2021/03/11 08:17:40;;;;;;;22.73;13.02;;;4.80;99.90;;;;;;5078565;28;20207;-71
2021/03/11 08:20:29;;;;;;;24.23;13.13;;;4.80;99.90;;;;;;5080502;28;20180;-74
2021/03/11 08:23:03;;;;;;;24.45;13.10;;;4.80;99.90;;;;;;5077500;28;20192;-73
2021/03/11 08:25:41;;;;;;;23.50;13.13;;;4.80;99.90;;;;;;5079067;28;20242;-72
2021/03/11 08:28:34;;;;;;;17.67;10.65;;;4.80;99.90;;;;;;5074638;28;20172;-73
2021/03/11 08:31:03;;;;;;;26.98;12.98;;;4.80;99.90;;;;;;5071160;28;20276;-71
2021/03/11 08:33:55;;;;;;;20.77;13.73;;;4.90;99.90;;;;;;5052326;28;20219;-70
2021/03/11 08:36:38;;;;;;;18.48;11.90;;;4.90;99.90;;;;;;5064676;28;20216;-73
2021/03/11 08:39:32;;;;;;;24.02;12.25;;;5.00;99.90;;;;;;5071464;28;20252;-72
2021/03/11 08:42:45;;;;;;;18.10;9.45;;;5.00;99.90;;;;;;5057809;28;20285;-71
2021/03/11 08:45:14;;;;;;;17.95;11.00;;;5.10;99.90;;;;;;5088016;28;20266;-73
2021/03/11 08:48:12;;;;;;;19.38;14.25;;;5.10;99.90;;;;;;5086832;28;20277;-74
2021/03/11 08:50:41;;;;;;;18.80;9.95;;;5.10;99.90;;;;;;5095733;28;20184;-74
2021/03/11 08:53:09;;;;;;;20.23;12.07;;;5.20;99.90;;;;;;5082175;28;20218;-76
2021/03/11 08:55:38;;;;;;;21.45;13.13;;;5.10;99.90;;;;;;5095196;28;20237;-75
2021/03/11 08:58:27;;;;;;;18.92;13.35;;;5.10;99.90;;;;;;5075328;28;20192;-76
2021/03/11 09:00:59;;;;;;;25.17;12.52;;;5.00;99.90;;;;;;5075265;28;20192;-76
2021/03/11 09:03:50;;;;;;;19.98;12.00;;;5.00;99.90;;;;;;5075790;28;20263;-74
2021/03/11 09:06:20;;;;;;;18.88;10.65;;;5.10;99.90;;;;;;5055645;28;20220;-75
2021/03/11 09:08:52;;;;;;;18.67;10.82;;;5.10;99.90;;;;;;5077490;28;20216;-76
2021/03/11 09:11:21;;;;;;;18.20;12.20;;;5.20;99.90;;;;;;5073759;28;20169;-73
2021/03/11 09:13:49;;;;;;;27.73;13.68;;;5.30;99.90;;;;;;5073465;28;20172;-72
2021/03/11 09:16:17;;;;;;;19.95;12.73;;;5.20;99.90;;;;;;5068134;28;20619;-73
2021/03/11 09:18:44;;;;;;;24.60;14.43;;;5.20;99.90;;;;;;5073084;28;20199;-73
2021/03/11 09:21:12;;;;;;;25.45;13.25;;;5.20;99.90;;;;;;5073240;28;20580;-71
2021/03/11 09:23:41;;;;;;;21.08;12.32;;;5.20;99.90;;;;;;5074156;28;20223;-70
2021/03/11 09:26:24;;;;;;;19.73;12.82;;;5.20;99.90;;;;;;5073573;28;20237;-72
2021/03/11 09:28:51;;;;;;;25.30;14.70;;;5.20;99.90;;;;;;5073613;28;20200;-71
2021/03/11 09:31:23;;;;;;;22.75;12.82;;;5.30;99.90;;;;;;5074281;28;20172;-74
2021/03/11 09:33:51;;;;;;;24.77;13.23;;;5.30;99.90;;;;;;5056971;28;20559;-72
2021/03/11 09:36:18;;;;;;;23.13;13.63;;;5.40;99.90;;;;;;5073796;28;20228;-71
2021/03/11 09:38:45;;;;;;;22.83;14.48;;;5.50;99.90;;;;;;5073407;28;20326;-75
2021/03/11 09:41:13;;;;;;;21.63;13.00;;;5.50;99.90;;;;;;5075644;28;20220;-71
2021/03/11 09:43:42;;;;;;;19.73;13.13;;;5.50;99.90;;;;;;5078530;28;20196;-74
2021/03/11 09:46:12;;;;;;;13.88;9.82;;;5.50;99.90;;;;;;5081232;28;20239;-71
2021/03/11 09:48:41;;;;;;;20.85;11.30;;;5.70;99.90;;;;;;5077142;28;20176;-73
2021/03/11 09:51:10;;;;;;;25.77;13.50;;;5.70;99.90;;;;;;5072296;28;20212;-73
2021/03/11 09:53:42;;;;;;;23.55;12.82;;;5.80;99.90;;;;;;5071296;28;20676;-71
2021/03/11 09:56:13;;;;;;;17.83;10.65;;;5.90;99.90;;;;;;5073430;28;20212;-74
2021/03/11 09:58:46;;;;;;;17.05;14.82;;;5.90;99.90;;;;;;5072825;28;20652;-74
2021/03/11 10:01:24;;;;;;;14.43;9.18;;;5.90;99.90;;;;;;5064889;28;20678;-73
2021/03/11 10:03:52;;;;;;;20.40;11.00;;;6.00;99.90;;;;;;5072429;28;20203;-73
2021/03/11 10:06:21;;;;;;;19.63;11.20;;;6.10;99.90;;;;;;5071973;28;20227;-73
2021/03/11 10:08:53;;;;;;;17.70;11.07;;;6.10;99.90;;;;;;5071838;28;20215;-71
2021/03/11 10:11:24;;;;;;;17.33;10.07;;;6.00;99.90;;;;;;5072743;28;20187;-73
2021/03/11 10:13:53;;;;;;;24.60;13.13;;;6.10;99.90;;;;;;5072367;28;20192;-73
2021/03/11 10:16:39;;;;;;;16.98;11.38;;;6.10;99.90;;;;;;5084420;28;20358;-71
2021/03/11 10:19:11;;;;;;;13.98;9.10;;;6.10;99.90;;;;;;5094573;28;20176;-80
2021/03/11 10:21:53;;;;;;;16.45;10.95;;;6.30;99.90;;;;;;5096011;28;20203;-71
2021/03/11 10:24:34;;;;;;;19.67;10.80;;;6.30;99.90;;;;;;5093993;28;20195;-75
2021/03/11 10:27:05;;;;;;;22.95;11.48;;;6.20;99.90;;;;;;5093520;28;20299;-75
2021/03/11 10:29:33;;;;;;;23.42;11.77;;;6.30;99.90;;;;;;5093541;28;20266;-75
2021/03/11 10:32:03;;;;;;;19.90;10.65;;;6.50;99.90;;;;;;5094575;28;20190;-76
2021/03/11 10:34:31;;;;;;;12.13;9.38;;;6.50;99.90;;;;;;5093842;28;20644;-73
2021/03/11 10:37:00;;;;;;;19.48;12.52;;;6.50;99.90;;;;;;5093660;28;20275;-76
2021/03/11 10:39:28;;;;;;;15.95;11.43;;;6.50;99.90;;;;;;5092996;28;20180;-76
2021/03/11 10:41:59;;;;;;;10.93;8.80;;;6.60;99.90;;;;;;5092484;28;20191;-73
2021/03/11 10:44:27;;;;;;;11.85;8.57;;;6.80;99.90;;;;;;5092736;28;20270;-75
2021/03/11 10:47:13;;;;;;;21.70;10.90;;;6.80;99.90;;;;;;5092196;28;20226;-75
2021/03/11 10:49:42;;;;;;;13.05;8.68;;;6.90;99.90;;;;;;5091908;28;20179;-75
2021/03/11 10:52:10;;;;;;;15.25;9.93;;;7.00;99.90;;;;;;5092605;28;20186;-76
2021/03/11 10:54:39;;;;;;;13.20;8.73;;;7.20;99.90;;;;;;5090190;28;20562;-75
2021/03/11 10:57:08;;;;;;;16.25;8.93;;;7.60;99.90;;;;;;5091500;28;20572;-78
2021/03/11 11:00:07;;;;;;;15.95;9.35;;;7.90;99.90;;;;;;5073295;28;20198;-77
2021/03/11 11:02:35;;;;;;;15.55;9.27;;;8.10;99.90;;;;;;5057739;28;20840;-73
2021/03/11 11:05:04;;;;;;;14.02;10.18;;;8.30;99.90;;;;;;5091342;28;20202;-72
2021/03/11 11:07:31;;;;;;;19.52;10.25;;;8.50;99.90;;;;;;5091199;28;20207;-70
2021/03/11 11:09:59;;;;;;;10.68;8.82;;;8.60;99.90;;;;;;5077551;28;20645;-74
2021/03/11 11:12:26;;;;;;;9.90;7.50;;;8.90;99.90;;;;;;5071188;28;20252;-75
2021/03/11 11:14:53;;;;;;;12.23;8.32;;;9.00;1.00;;;;;;5069836;28;20210;-73
2021/03/11 11:17:22;;;;;;;9.32;6.85;;;9.20;1.00;;;;;;5071017;28;20625;-73
2021/03/11 11:19:49;;;;;;;10.52;7.95;;;9.30;99.90;;;;;;5070781;28;20547;-73
2021/03/11 11:22:16;;;;;;;13.75;9.00;;;9.50;1.00;;;;;;5069503;28;20211;-74
2021/03/11 11:24:43;;;;;;;12.57;7.10;;;9.60;1.00;;;;;;5071003;28;20188;-75
2021/03/11 11:27:13;;;;;;;13.85;8.40;;;9.40;1.00;;;;;;5070982;28;20207;-73
2021/03/11 11:29:40;;;;;;;10.13;7.90;;;9.50;63.90;;;;;;5070565;28;20282;-75
2021/03/11 11:32:08;;;;;;;11.30;6.47;;;9.50;1.00;;;;;;5069744;28;20681;-70
2021/03/11 11:34:37;;;;;;;10.05;6.85;;;9.20;99.90;;;;;;5069652;28;20179;-73
2021/03/11 11:37:05;;;;;;;10.02;6.80;;;9.20;99.90;;;;;;5070646;28;20208;-72
2021/03/11 11:39:32;;;;;;;12.48;7.88;;;9.20;99.90;;;;;;5068767;28;20207;-74
2021/03/11 11:42:01;;;;;;;12.02;8.52;;;9.30;99.90;;;;;;5070780;28;20226;-68
2021/03/11 11:44:28;;;;;;;10.35;7.05;;;9.10;1.00;;;;;;5072022;28;20195;-71
2021/03/11 11:46:55;;;;;;;16.38;8.75;;;8.90;99.90;;;;;;5091428;28;20207;-72
2021/03/11 11:49:23;;;;;;;10.85;8.30;;;8.70;1.00;;;;;;5089704;28;20210;-69
2021/03/11 11:51:51;;;;;;;12.60;7.85;;;8.70;99.90;;;;;;5091231;28;20187;-71
2021/03/11 11:54:18;;;;;;;8.80;7.50;;;8.80;99.90;;;;;;5091251;28;20206;-68
2021/03/11 11:56:45;;;;;;;11.40;6.93;;;9.00;99.90;;;;;;5091527;28;20199;-72
2021/03/11 11:59:12;;;;;;;6.63;5.93;;;9.30;99.90;;;;;;5089764;28;20175;-72
2021/03/11 12:01:39;;;;;;;7.38;5.68;;;9.60;99.90;;;;;;5090776;28;20215;-70
2021/03/11 12:04:07;;;;;;;10.73;8.00;;;9.80;99.90;;;;;;5090921;28;20198;-73
2021/03/11 12:06:34;;;;;;;9.02;6.43;;;10.00;99.90;;;;;;5091426;28;20199;-71
2021/03/11 12:09:02;;;;;;;8.35;6.38;;;10.10;99.90;;;;;;5085216;28;20667;-71
2021/03/11 12:11:29;;;;;;;8.90;6.65;;;10.20;99.90;;;;;;5070820;28;20187;-73
2021/03/11 12:13:57;;;;;;;8.00;5.50;;;10.30;99.90;;;;;;5071126;28;20259;-72
2021/03/11 12:16:24;;;;;;;10.63;6.43;;;10.40;99.90;;;;;;5074452;28;20551;-72
2021/03/11 12:18:51;;;;;;;6.40;5.45;;;10.50;99.90;;;;;;5074430;28;20230;-72
2021/03/11 12:21:19;;;;;;;8.30;6.35;;;10.40;99.90;;;;;;5074619;28;20208;-74
2021/03/11 12:23:46;;;;;;;9.15;6.35;;;10.50;99.90;;;;;;5074522;28;20186;-72
2021/03/11 12:26:17;;;;;;;10.65;5.47;;;10.70;99.90;;;;;;5056298;28;20247;-72
2021/03/11 12:28:44;;;;;;;8.60;6.03;;;10.80;99.90;;;;;;5073080;28;20540;-74
2021/03/11 12:31:12;;;;;;;13.70;5.97;;;11.00;99.90;;;;;;5065902;28;20487;-75
2021/03/11 12:33:40;;;;;;;7.65;5.55;;;11.10;99.90;;;;;;5074137;28;20223;-75
2021/03/11 12:36:09;;;;;;;6.40;5.60;;;11.20;99.90;;;;;;5056554;28;20323;-74
2021/03/11 12:38:37;;;;;;;10.27;6.00;;;11.20;99.90;;;;;;5073647;28;20513;-75
2021/03/11 12:41:05;;;;;;;8.38;5.60;;;11.30;99.90;;;;;;5074801;28;20184;-72
2021/03/11 12:43:34;;;;;;;8.02;5.22;;;11.20;99.90;;;;;;5072714;28;20184;-71
2021/03/11 12:46:02;;;;;;;8.68;6.40;;;11.00;99.90;;;;;;5055419;28;20311;-71
2021/03/11 12:48:29;;;;;;;7.03;4.93;;;10.80;99.90;;;;;;5072461;28;20196;-70
2021/03/11 12:50:57;;;;;;;7.53;5.78;;;10.80;99.90;;;;;;5074897;28;20180;-72
2021/03/11 12:53:24;;;;;;;8.43;6.00;;;10.90;99.90;;;;;;5072907;28;20192;-70